sensor_id;sensor_type;location;lat;lon;timestamp;pressure;altitude;pressure_sealevel;temperature;humidity
69980;BME280;57318;56.232;43.944;2023-07-20T00:01:37;97245.66;;;14.37;82.54
69980;BME280;57318;56.232;43.944;2023-07-20T00:04:03;97248.94;;;14.39;82.48
69980;BME280;57318;56.232;43.944;2023-07-20T00:06:29;97252.44;;;14.39;82.17
69980;BME280;57318;56.232;43.944;2023-07-20T00:08:55;97260.44;;;14.39;82.02
69980;BME280;57318;56.232;43.944;2023-07-20T00:11:25;97251.81;;;14.37;81.62
69980;BME280;57318;56.232;43.944;2023-07-20T00:13:52;97257.16;;;14.37;81.40
69980;BME280;57318;56.232;43.944;2023-07-20T00:16:18;97257.97;;;14.38;81.36
69980;BME280;57318;56.232;43.944;2023-07-20T00:18:44;97242.78;;;14.38;81.47
69980;BME280;57318;56.232;43.944;2023-07-20T00:21:12;97251.63;;;14.39;81.52
69980;BME280;57318;56.232;43.944;2023-07-20T00:23:38;97246.47;;;14.37;80.80
69980;BME280;57318;56.232;43.944;2023-07-20T00:26:04;97262.69;;;14.36;80.67
69980;BME280;57318;56.232;43.944;2023-07-20T00:28:29;97255.09;;;14.33;80.77
69980;BME280;57318;56.232;43.944;2023-07-20T00:30:55;97256.28;;;14.30;80.82
69980;BME280;57318;56.232;43.944;2023-07-20T00:33:21;97256.50;;;14.29;80.74
69980;BME280;57318;56.232;43.944;2023-07-20T00:35:47;97255.06;;;14.26;80.97
69980;BME280;57318;56.232;43.944;2023-07-20T00:38:13;97256.69;;;14.27;80.74
69980;BME280;57318;56.232;43.944;2023-07-20T00:40:40;97254.03;;;14.27;80.90
69980;BME280;57318;56.232;43.944;2023-07-20T00:43:06;97268.44;;;14.26;80.95
69980;BME280;57318;56.232;43.944;2023-07-20T00:45:33;97244.78;;;14.23;80.94
69980;BME280;57318;56.232;43.944;2023-07-20T00:48:01;97273.31;;;14.22;80.76
69980;BME280;57318;56.232;43.944;2023-07-20T00:50:28;97266.09;;;14.16;80.61
69980;BME280;57318;56.232;43.944;2023-07-20T00:52:55;97264.47;;;14.15;80.73
69980;BME280;57318;56.232;43.944;2023-07-20T00:55:21;97254.81;;;14.14;80.95
69980;BME280;57318;56.232;43.944;2023-07-20T00:57:48;97273.69;;;14.13;80.78
69980;BME280;57318;56.232;43.944;2023-07-20T01:00:14;97268.56;;;14.11;80.71
69980;BME280;57318;56.232;43.944;2023-07-20T01:02:40;97257.88;;;14.11;81.03
69980;BME280;57318;56.232;43.944;2023-07-20T01:05:06;97291.97;;;14.09;80.83
69980;BME280;57318;56.232;43.944;2023-07-20T01:07:36;97280.88;;;14.05;81.15
69980;BME280;57318;56.232;43.944;2023-07-20T01:10:14;97275.88;;;13.96;81.55
69980;BME280;57318;56.232;43.944;2023-07-20T01:12:43;97268.44;;;13.91;82.21
69980;BME280;57318;56.232;43.944;2023-07-20T01:15:12;97265.94;;;13.83;82.47
69980;BME280;57318;56.232;43.944;2023-07-20T01:17:38;97276.19;;;13.79;83.43
69980;BME280;57318;56.232;43.944;2023-07-20T01:20:05;97275.78;;;13.76;83.64
69980;BME280;57318;56.232;43.944;2023-07-20T01:25:53;97272.81;;;13.64;84.58
69980;BME280;57318;56.232;43.944;2023-07-20T01:28:54;97259.69;;;13.62;84.43
69980;BME280;57318;56.232;43.944;2023-07-20T01:31:27;97272.41;;;13.60;84.97
69980;BME280;57318;56.232;43.944;2023-07-20T01:33:58;97267.25;;;13.59;85.21
69980;BME280;57318;56.232;43.944;2023-07-20T01:36:29;97270.53;;;13.61;85.12
69980;BME280;57318;56.232;43.944;2023-07-20T01:38:56;97279.75;;;13.58;85.23
69980;BME280;57318;56.232;43.944;2023-07-20T01:41:22;97281.41;;;13.59;84.57
69980;BME280;57318;56.232;43.944;2023-07-20T01:43:48;97267.88;;;13.61;84.77
69980;BME280;57318;56.232;43.944;2023-07-20T01:46:14;97271.34;;;13.61;84.83
69980;BME280;57318;56.232;43.944;2023-07-20T01:48:40;97264.81;;;13.64;84.43
69980;BME280;57318;56.232;43.944;2023-07-20T01:51:05;97271.63;;;13.66;84.28
69980;BME280;57318;56.232;43.944;2023-07-20T01:53:31;97276.75;;;13.68;83.92
69980;BME280;57318;56.232;43.944;2023-07-20T01:55:57;97287.66;;;13.73;83.55
69980;BME280;57318;56.232;43.944;2023-07-20T01:58:23;97277.88;;;13.80;83.41
69980;BME280;57318;56.232;43.944;2023-07-20T02:00:49;97277.91;;;13.87;83.11
69980;BME280;57318;56.232;43.944;2023-07-20T02:03:15;97277.31;;;13.92;82.44
69980;BME280;57318;56.232;43.944;2023-07-20T02:05:45;97282.66;;;13.98;82.30
69980;BME280;57318;56.232;43.944;2023-07-20T02:08:11;97279.81;;;14.00;81.99
69980;BME280;57318;56.232;43.944;2023-07-20T02:10:37;97283.53;;;14.05;81.91
69980;BME280;57318;56.232;43.944;2023-07-20T02:13:03;97276.97;;;14.08;81.65
69980;BME280;57318;56.232;43.944;2023-07-20T02:15:29;97278.41;;;14.11;81.01
69980;BME280;57318;56.232;43.944;2023-07-20T02:17:55;97282.31;;;14.15;81.38
69980;BME280;57318;56.232;43.944;2023-07-20T02:20:20;97282.75;;;14.12;80.80
69980;BME280;57318;56.232;43.944;2023-07-20T02:22:46;97291.19;;;14.15;80.91
69980;BME280;57318;56.232;43.944;2023-07-20T02:25:12;97279.03;;;14.13;80.55
69980;BME280;57318;56.232;43.944;2023-07-20T02:27:38;97292.59;;;14.11;80.60
69980;BME280;57318;56.232;43.944;2023-07-20T02:30:04;97291.16;;;14.08;80.44
69980;BME280;57318;56.232;43.944;2023-07-20T02:32:36;97286.81;;;14.07;80.42
69980;BME280;57318;56.232;43.944;2023-07-20T02:35:02;97283.75;;;14.04;80.67
69980;BME280;57318;56.232;43.944;2023-07-20T02:37:31;97294.41;;;14.04;80.07
69980;BME280;57318;56.232;43.944;2023-07-20T02:39:56;97292.97;;;14.01;80.30
69980;BME280;57318;56.232;43.944;2023-07-20T02:42:22;97293.97;;;14.00;80.51
69980;BME280;57318;56.232;43.944;2023-07-20T02:44:51;97298.06;;;13.96;80.52
69980;BME280;57318;56.232;43.944;2023-07-20T02:47:17;97299.47;;;13.92;80.66
69980;BME280;57318;56.232;43.944;2023-07-20T02:49:42;97308.75;;;13.96;80.45
69980;BME280;57318;56.232;43.944;2023-07-20T02:52:11;97309.16;;;13.93;80.36
69980;BME280;57318;56.232;43.944;2023-07-20T02:54:37;97318.78;;;13.94;80.12
69980;BME280;57318;56.232;43.944;2023-07-20T02:57:03;97313.84;;;13.91;80.03
69980;BME280;57318;56.232;43.944;2023-07-20T02:59:29;97311.81;;;13.93;79.58
69980;BME280;57318;56.232;43.944;2023-07-20T03:01:55;97318.78;;;13.94;79.62
69980;BME280;57318;56.232;43.944;2023-07-20T03:04:21;97325.19;;;14.00;78.97
69980;BME280;57318;56.232;43.944;2023-07-20T03:06:47;97316.19;;;14.07;78.92
69980;BME280;57318;56.232;43.944;2023-07-20T03:09:12;97326.72;;;14.16;78.29
69980;BME280;57318;56.232;43.944;2023-07-20T03:11:38;97324.06;;;14.22;78.29
69980;BME280;57318;56.232;43.944;2023-07-20T03:14:04;97327.41;;;14.31;77.72
69980;BME280;57318;56.232;43.944;2023-07-20T03:16:30;97333.19;;;14.41;77.68
69980;BME280;57318;56.232;43.944;2023-07-20T03:18:59;97340.66;;;14.53;76.46
69980;BME280;57318;56.232;43.944;2023-07-20T03:21:25;97341.28;;;14.55;76.31
69980;BME280;57318;56.232;43.944;2023-07-20T03:23:51;97328.41;;;14.65;76.19
69980;BME280;57318;56.232;43.944;2023-07-20T03:26:17;97341.81;;;14.85;74.99
69980;BME280;57318;56.232;43.944;2023-07-20T03:28:43;97342.06;;;14.97;74.58
69980;BME280;57318;56.232;43.944;2023-07-20T03:31:09;97351.56;;;15.20;74.32
69980;BME280;57318;56.232;43.944;2023-07-20T03:33:35;97347.66;;;15.49;73.69
69980;BME280;57318;56.232;43.944;2023-07-20T03:36:01;97363.72;;;15.56;72.31
69980;BME280;57318;56.232;43.944;2023-07-20T03:38:27;97356.53;;;15.69;72.22
69980;BME280;57318;56.232;43.944;2023-07-20T03:40:57;97337.16;;;15.74;71.68
69980;BME280;57318;56.232;43.944;2023-07-20T03:43:25;97359.84;;;15.78;70.94
69980;BME280;57318;56.232;43.944;2023-07-20T03:45:52;97343.31;;;15.75;70.81
69980;BME280;57318;56.232;43.944;2023-07-20T03:48:20;97357.94;;;15.65;70.93
69980;BME280;57318;56.232;43.944;2023-07-20T03:50:48;97360.63;;;15.65;71.34
69980;BME280;57318;56.232;43.944;2023-07-20T03:53:14;97356.13;;;15.66;71.69
69980;BME280;57318;56.232;43.944;2023-07-20T03:55:47;97364.34;;;15.71;70.71
69980;BME280;57318;56.232;43.944;2023-07-20T03:58:14;97355.69;;;15.56;71.44
69980;BME280;57318;56.232;43.944;2023-07-20T04:00:39;97356.53;;;15.63;71.93
69980;BME280;57318;56.232;43.944;2023-07-20T04:03:06;97364.53;;;15.76;70.92
69980;BME280;57318;56.232;43.944;2023-07-20T04:05:31;97375.66;;;15.73;70.76
69980;BME280;57318;56.232;43.944;2023-07-20T04:07:58;97370.72;;;15.70;70.59
69980;BME280;57318;56.232;43.944;2023-07-20T04:10:24;97366.63;;;15.74;70.58
69980;BME280;57318;56.232;43.944;2023-07-20T04:12:49;97368.50;;;15.80;69.96
69980;BME280;57318;56.232;43.944;2023-07-20T04:15:15;97375.47;;;15.81;69.72
69980;BME280;57318;56.232;43.944;2023-07-20T04:17:41;97372.19;;;15.79;69.63
69980;BME280;57318;56.232;43.944;2023-07-20T04:20:07;97382.69;;;15.87;69.62
69980;BME280;57318;56.232;43.944;2023-07-20T04:22:34;97366.00;;;15.99;69.06
69980;BME280;57318;56.232;43.944;2023-07-20T04:24:59;97368.47;;;16.07;68.71
69980;BME280;57318;56.232;43.944;2023-07-20T04:27:25;97369.25;;;16.28;68.44
69980;BME280;57318;56.232;43.944;2023-07-20T04:29:52;97373.34;;;16.37;67.78
69980;BME280;57318;56.232;43.944;2023-07-20T04:32:20;97370.81;;;16.49;67.22
69980;BME280;57318;56.232;43.944;2023-07-20T04:34:46;97371.59;;;16.63;66.98
69980;BME280;57318;56.232;43.944;2023-07-20T04:37:12;97382.06;;;16.71;66.83
69980;BME280;57318;56.232;43.944;2023-07-20T04:39:37;97381.66;;;16.74;66.33
69980;BME280;57318;56.232;43.944;2023-07-20T04:42:03;97381.94;;;16.59;65.97
69980;BME280;57318;56.232;43.944;2023-07-20T04:44:29;97395.16;;;16.47;66.25
69980;BME280;57318;56.232;43.944;2023-07-20T04:46:55;97393.13;;;16.36;67.04
69980;BME280;57318;56.232;43.944;2023-07-20T04:49:20;97380.78;;;16.21;67.24
69980;BME280;57318;56.232;43.944;2023-07-20T04:51:46;97382.81;;;16.33;67.45
69980;BME280;57318;56.232;43.944;2023-07-20T04:54:12;97386.75;;;16.30;67.50
69980;BME280;57318;56.232;43.944;2023-07-20T04:56:39;97385.72;;;16.31;67.36
69980;BME280;57318;56.232;43.944;2023-07-20T04:59:04;97385.25;;;16.41;67.52
69980;BME280;57318;56.232;43.944;2023-07-20T05:01:30;97379.50;;;16.51;66.97
69980;BME280;57318;56.232;43.944;2023-07-20T05:03:56;97394.25;;;16.73;66.06
69980;BME280;57318;56.232;43.944;2023-07-20T05:06:21;97397.53;;;16.82;65.79
69980;BME280;57318;56.232;43.944;2023-07-20T05:08:47;97406.53;;;16.94;65.33
69980;BME280;57318;56.232;43.944;2023-07-20T05:11:13;97395.84;;;16.88;65.00
69980;BME280;57318;56.232;43.944;2023-07-20T05:13:39;97393.34;;;16.93;65.33
69980;BME280;57318;56.232;43.944;2023-07-20T05:16:04;97403.81;;;17.08;64.52
69980;BME280;57318;56.232;43.944;2023-07-20T05:18:30;97395.72;;;17.14;64.91
69980;BME280;57318;56.232;43.944;2023-07-20T05:20:56;97401.66;;;17.23;64.20
69980;BME280;57318;56.232;43.944;2023-07-20T05:23:22;97403.28;;;17.31;63.81
69980;BME280;57318;56.232;43.944;2023-07-20T05:25:55;97396.78;;;17.45;63.67
69980;BME280;57318;56.232;43.944;2023-07-20T05:28:22;97392.81;;;17.48;63.62
69980;BME280;57318;56.232;43.944;2023-07-20T05:30:48;97391.44;;;17.71;63.25
69980;BME280;57318;56.232;43.944;2023-07-20T05:33:14;97401.72;;;17.74;62.84
69980;BME280;57318;56.232;43.944;2023-07-20T05:35:39;97393.09;;;17.72;63.17
69980;BME280;57318;56.232;43.944;2023-07-20T05:38:05;97393.84;;;17.79;63.06
69980;BME280;57318;56.232;43.944;2023-07-20T05:40:32;97387.50;;;17.98;62.90
69980;BME280;57318;56.232;43.944;2023-07-20T05:42:57;97390.38;;;18.22;61.78
69980;BME280;57318;56.232;43.944;2023-07-20T05:45:25;97379.09;;;18.32;61.48
69980;BME280;57318;56.232;43.944;2023-07-20T05:47:50;97392.25;;;18.40;61.56
69980;BME280;57318;56.232;43.944;2023-07-20T05:50:16;97389.56;;;18.58;61.24
69980;BME280;57318;56.232;43.944;2023-07-20T05:52:42;97393.75;;;18.54;61.04
69980;BME280;57318;56.232;43.944;2023-07-20T05:55:08;97397.09;;;18.50;61.20
69980;BME280;57318;56.232;43.944;2023-07-20T05:57:34;97399.03;;;18.61;60.86
69980;BME280;57318;56.232;43.944;2023-07-20T06:00:00;97387.81;;;18.64;60.41
69980;BME280;57318;56.232;43.944;2023-07-20T06:02:28;97392.56;;;18.87;59.89
69980;BME280;57318;56.232;43.944;2023-07-20T06:04:54;97397.72;;;18.89;59.55
69980;BME280;57318;56.232;43.944;2023-07-20T06:07:20;97401.28;;;19.01;59.38
69980;BME280;57318;56.232;43.944;2023-07-20T06:09:45;97395.22;;;19.06;59.21
69980;BME280;57318;56.232;43.944;2023-07-20T06:12:11;97410.13;;;19.20;57.91
69980;BME280;57318;56.232;43.944;2023-07-20T06:14:37;97410.50;;;19.24;57.94
69980;BME280;57318;56.232;43.944;2023-07-20T06:17:04;97412.22;;;19.48;57.33
69980;BME280;57318;56.232;43.944;2023-07-20T06:19:29;97404.16;;;19.48;56.84
69980;BME280;57318;56.232;43.944;2023-07-20T06:21:55;97422.34;;;19.23;57.23
69980;BME280;57318;56.232;43.944;2023-07-20T06:24:21;97420.94;;;19.02;58.07
69980;BME280;57318;56.232;43.944;2023-07-20T06:26:46;97403.00;;;18.96;58.01
69980;BME280;57318;56.232;43.944;2023-07-20T06:29:12;97412.72;;;18.97;58.66
69980;BME280;57318;56.232;43.944;2023-07-20T06:31:38;97409.00;;;19.28;58.56
69980;BME280;57318;56.232;43.944;2023-07-20T06:34:04;97426.41;;;19.25;57.77
69980;BME280;57318;56.232;43.944;2023-07-20T06:36:30;97412.25;;;19.18;58.50
69980;BME280;57318;56.232;43.944;2023-07-20T06:38:56;97426.34;;;19.32;58.39
69980;BME280;57318;56.232;43.944;2023-07-20T06:41:22;97423.78;;;19.37;57.70
69980;BME280;57318;56.232;43.944;2023-07-20T06:43:48;97445.59;;;19.47;56.62
69980;BME280;57318;56.232;43.944;2023-07-20T06:46:14;97421.03;;;19.56;56.76
69980;BME280;57318;56.232;43.944;2023-07-20T06:48:40;97433.22;;;20.00;56.00
69980;BME280;57318;56.232;43.944;2023-07-20T06:51:05;97425.81;;;20.43;54.96
69980;BME280;57318;56.232;43.944;2023-07-20T06:53:32;97443.03;;;20.89;51.30
69980;BME280;57318;56.232;43.944;2023-07-20T06:55:58;97448.50;;;20.66;51.77
69980;BME280;57318;56.232;43.944;2023-07-20T06:58:24;97429.09;;;21.21;50.72
69980;BME280;57318;56.232;43.944;2023-07-20T07:00:50;97438.22;;;21.78;47.14
69980;BME280;57318;56.232;43.944;2023-07-20T07:03:16;97434.50;;;22.91;45.72
69980;BME280;57318;56.232;43.944;2023-07-20T07:05:43;97444.34;;;23.19;45.67
69980;BME280;57318;56.232;43.944;2023-07-20T07:08:10;97435.66;;;22.95;46.67
69980;BME280;57318;56.232;43.944;2023-07-20T07:10:36;97446.09;;;23.58;45.65
69980;BME280;57318;56.232;43.944;2023-07-20T07:13:02;97450.91;;;24.85;42.49
69980;BME280;57318;56.232;43.944;2023-07-20T07:15:28;97457.75;;;25.82;39.55
69980;BME280;57318;56.232;43.944;2023-07-20T07:17:54;97443.56;;;25.54;39.64
69980;BME280;57318;56.232;43.944;2023-07-20T07:20:21;97464.81;;;26.50;38.83
69980;BME280;57318;56.232;43.944;2023-07-20T07:22:47;97458.25;;;26.77;37.35
69980;BME280;57318;56.232;43.944;2023-07-20T07:25:12;97470.22;;;25.57;38.98
69980;BME280;57318;56.232;43.944;2023-07-20T07:27:38;97460.69;;;24.44;41.34
69980;BME280;57318;56.232;43.944;2023-07-20T07:30:04;97468.03;;;23.78;41.92
69980;BME280;57318;56.232;43.944;2023-07-20T07:32:31;97460.72;;;24.11;41.48
69980;BME280;57318;56.232;43.944;2023-07-20T07:34:57;97474.34;;;25.75;37.83
69980;BME280;57318;56.232;43.944;2023-07-20T07:37:24;97466.72;;;26.55;36.36
69980;BME280;57318;56.232;43.944;2023-07-20T07:39:50;97456.25;;;27.63;34.30
69980;BME280;57318;56.232;43.944;2023-07-20T07:42:15;97462.19;;;27.76;33.84
69980;BME280;57318;56.232;43.944;2023-07-20T07:44:41;97475.25;;;28.53;32.60
69980;BME280;57318;56.232;43.944;2023-07-20T07:47:07;97480.25;;;28.46;33.25
69980;BME280;57318;56.232;43.944;2023-07-20T07:49:33;97482.88;;;29.09;32.50
69980;BME280;57318;56.232;43.944;2023-07-20T07:51:58;97489.13;;;29.96;31.26
69980;BME280;57318;56.232;43.944;2023-07-20T07:54:28;97493.03;;;30.61;28.99
69980;BME280;57318;56.232;43.944;2023-07-20T07:56:54;97487.06;;;30.73;29.07
69980;BME280;57318;56.232;43.944;2023-07-20T07:59:20;97510.25;;;30.94;29.04
69980;BME280;57318;56.232;43.944;2023-07-20T08:01:46;97489.22;;;30.90;28.49
69980;BME280;57318;56.232;43.944;2023-07-20T08:04:11;97480.56;;;30.36;29.22
69980;BME280;57318;56.232;43.944;2023-07-20T08:06:38;97489.53;;;31.58;27.67
69980;BME280;57318;56.232;43.944;2023-07-20T08:09:04;97488.72;;;31.94;26.44
69980;BME280;57318;56.232;43.944;2023-07-20T08:11:30;97490.84;;;31.33;27.43
69980;BME280;57318;56.232;43.944;2023-07-20T08:14:01;97488.63;;;30.46;28.36
69980;BME280;57318;56.232;43.944;2023-07-20T08:16:27;97496.84;;;29.32;29.13
69980;BME280;57318;56.232;43.944;2023-07-20T08:18:53;97484.88;;;28.16;31.54
69980;BME280;57318;56.232;43.944;2023-07-20T08:21:19;97498.31;;;27.62;32.56
69980;BME280;57318;56.232;43.944;2023-07-20T08:23:44;97493.28;;;27.75;32.47
69980;BME280;57318;56.232;43.944;2023-07-20T08:26:10;97499.78;;;27.89;32.05
69980;BME280;57318;56.232;43.944;2023-07-20T08:28:36;97495.59;;;27.57;32.10
69980;BME280;57318;56.232;43.944;2023-07-20T08:31:01;97503.03;;;27.91;31.25
69980;BME280;57318;56.232;43.944;2023-07-20T08:33:28;97514.25;;;28.88;30.15
69980;BME280;57318;56.232;43.944;2023-07-20T08:35:55;97503.16;;;30.28;28.21
69980;BME280;57318;56.232;43.944;2023-07-20T08:38:22;97516.25;;;30.97;26.81
69980;BME280;57318;56.232;43.944;2023-07-20T08:40:47;97521.59;;;31.85;25.55
69980;BME280;57318;56.232;43.944;2023-07-20T08:43:14;97520.13;;;31.65;25.31
69980;BME280;57318;56.232;43.944;2023-07-20T08:45:45;97522.16;;;30.57;26.66
69980;BME280;57318;56.232;43.944;2023-07-20T08:48:11;97519.06;;;29.49;28.49
69980;BME280;57318;56.232;43.944;2023-07-20T08:50:38;97515.03;;;29.23;29.09
69980;BME280;57318;56.232;43.944;2023-07-20T08:53:04;97527.59;;;27.96;30.70
69980;BME280;57318;56.232;43.944;2023-07-20T08:55:30;97524.47;;;26.26;33.45
69980;BME280;57318;56.232;43.944;2023-07-20T08:57:58;97537.91;;;25.49;35.23
69980;BME280;57318;56.232;43.944;2023-07-20T09:00:25;97523.25;;;27.35;31.98
69980;BME280;57318;56.232;43.944;2023-07-20T09:02:55;97515.13;;;27.09;32.59
69980;BME280;57318;56.232;43.944;2023-07-20T09:05:23;97510.13;;;27.92;31.29
69980;BME280;57318;56.232;43.944;2023-07-20T09:07:51;97532.41;;;28.10;31.03
69980;BME280;57318;56.232;43.944;2023-07-20T09:10:16;97517.00;;;29.60;28.70
69980;BME280;57318;56.232;43.944;2023-07-20T09:12:44;97519.50;;;30.52;26.99
69980;BME280;57318;56.232;43.944;2023-07-20T09:15:11;97510.22;;;29.96;27.72
69980;BME280;57318;56.232;43.944;2023-07-20T09:17:37;97513.16;;;30.84;26.79
69980;BME280;57318;56.232;43.944;2023-07-20T09:20:07;97527.84;;;31.49;25.87
69980;BME280;57318;56.232;43.944;2023-07-20T09:22:39;97508.69;;;29.90;27.12
69980;BME280;57318;56.232;43.944;2023-07-20T09:25:11;97504.66;;;27.97;30.09
69980;BME280;57318;56.232;43.944;2023-07-20T09:27:40;97523.66;;;26.41;33.29
69980;BME280;57318;56.232;43.944;2023-07-20T09:30:06;97498.53;;;24.98;36.19
69980;BME280;57318;56.232;43.944;2023-07-20T09:32:42;97501.88;;;26.15;34.28
69980;BME280;57318;56.232;43.944;2023-07-20T09:35:19;97506.69;;;25.67;34.45
69980;BME280;57318;56.232;43.944;2023-07-20T09:37:51;97502.72;;;27.53;32.04
69980;BME280;57318;56.232;43.944;2023-07-20T09:40:20;97516.72;;;29.62;28.54
69980;BME280;57318;56.232;43.944;2023-07-20T09:42:47;97505.19;;;31.16;26.54
69980;BME280;57318;56.232;43.944;2023-07-20T09:45:13;97519.00;;;31.38;25.70
69980;BME280;57318;56.232;43.944;2023-07-20T09:47:39;97505.91;;;31.35;26.21
69980;BME280;57318;56.232;43.944;2023-07-20T09:50:07;97508.97;;;30.73;26.82
69980;BME280;57318;56.232;43.944;2023-07-20T09:52:41;97517.53;;;31.82;24.85
69980;BME280;57318;56.232;43.944;2023-07-20T09:55:08;97500.00;;;31.42;25.11
69980;BME280;57318;56.232;43.944;2023-07-20T09:57:35;97497.06;;;30.50;26.29
69980;BME280;57318;56.232;43.944;2023-07-20T10:00:03;97511.03;;;28.51;28.52
69980;BME280;57318;56.232;43.944;2023-07-20T10:02:37;97504.53;;;26.97;31.80
69980;BME280;57318;56.232;43.944;2023-07-20T10:05:11;97517.94;;;26.11;33.68
69980;BME280;57318;56.232;43.944;2023-07-20T10:07:43;97492.34;;;26.07;33.66
69980;BME280;57318;56.232;43.944;2023-07-20T10:10:10;97500.41;;;24.98;35.43
69980;BME280;57318;56.232;43.944;2023-07-20T10:12:46;97503.13;;;23.90;37.86
69980;BME280;57318;56.232;43.944;2023-07-20T10:15:25;97495.59;;;23.21;39.49
69980;BME280;57318;56.232;43.944;2023-07-20T10:20:32;97507.13;;;22.94;40.66
69980;BME280;57318;56.232;43.944;2023-07-20T10:22:59;97520.09;;;24.08;39.45
69980;BME280;57318;56.232;43.944;2023-07-20T10:25:25;97512.31;;;24.86;37.67
69980;BME280;57318;56.232;43.944;2023-07-20T10:27:52;97543.94;;;25.66;35.80
69980;BME280;57318;56.232;43.944;2023-07-20T10:30:18;97532.00;;;25.67;35.25
69980;BME280;57318;56.232;43.944;2023-07-20T10:32:46;97523.44;;;25.33;35.80
69980;BME280;57318;56.232;43.944;2023-07-20T10:35:16;97520.06;;;25.15;35.25
69980;BME280;57318;56.232;43.944;2023-07-20T10:40:32;97541.53;;;25.90;34.55
69980;BME280;57318;56.232;43.944;2023-07-20T10:43:04;97546.41;;;25.63;34.66
69980;BME280;57318;56.232;43.944;2023-07-20T10:45:42;97532.03;;;25.14;35.17
69980;BME280;57318;56.232;43.944;2023-07-20T10:48:14;97532.81;;;24.62;36.75
69980;BME280;57318;56.232;43.944;2023-07-20T10:50:42;97544.00;;;24.38;37.10
69980;BME280;57318;56.232;43.944;2023-07-20T10:53:18;97530.34;;;24.28;37.03
69980;BME280;57318;56.232;43.944;2023-07-20T10:55:44;97533.94;;;24.06;37.95
69980;BME280;57318;56.232;43.944;2023-07-20T10:58:15;97537.84;;;24.21;37.84
69980;BME280;57318;56.232;43.944;2023-07-20T11:01:00;97544.69;;;25.46;35.36
69980;BME280;57318;56.232;43.944;2023-07-20T11:03:28;97539.84;;;25.06;35.89
69980;BME280;57318;56.232;43.944;2023-07-20T11:05:53;97530.09;;;24.62;36.64
69980;BME280;57318;56.232;43.944;2023-07-20T11:08:41;97537.84;;;23.66;38.72
69980;BME280;57318;56.232;43.944;2023-07-20T11:16:42;97524.50;;;22.59;41.32
69980;BME280;57318;56.232;43.944;2023-07-20T11:19:22;97523.44;;;22.60;41.58
69980;BME280;57318;56.232;43.944;2023-07-20T11:21:56;97528.94;;;22.65;41.79
69980;BME280;57318;56.232;43.944;2023-07-20T11:24:22;97539.75;;;23.04;41.33
69980;BME280;57318;56.232;43.944;2023-07-20T11:26:50;97544.84;;;23.62;40.74
69980;BME280;57318;56.232;43.944;2023-07-20T11:29:19;97540.72;;;24.04;39.49
69980;BME280;57318;56.232;43.944;2023-07-20T11:31:46;97545.56;;;24.02;38.88
69980;BME280;57318;56.232;43.944;2023-07-20T11:34:14;97574.34;;;23.81;38.24
69980;BME280;57318;56.232;43.944;2023-07-20T11:36:41;97553.38;;;23.27;39.57
69980;BME280;57318;56.232;43.944;2023-07-20T11:39:12;97558.84;;;22.93;40.28
69980;BME280;57318;56.232;43.944;2023-07-20T11:41:38;97576.19;;;22.41;41.81
69980;BME280;57318;56.232;43.944;2023-07-20T11:44:06;97573.63;;;21.76;45.95
69980;BME280;57318;56.232;43.944;2023-07-20T11:46:33;97621.84;;;20.61;48.33
69980;BME280;57318;56.232;43.944;2023-07-20T11:49:00;97581.25;;;19.53;51.75
69980;BME280;57318;56.232;43.944;2023-07-20T11:51:28;97567.41;;;19.13;53.50
69980;BME280;57318;56.232;43.944;2023-07-20T11:53:54;97573.56;;;19.20;53.39
69980;BME280;57318;56.232;43.944;2023-07-20T11:56:20;97570.72;;;19.82;53.46
69980;BME280;57318;56.232;43.944;2023-07-20T11:58:48;97576.47;;;20.94;52.97
69980;BME280;57318;56.232;43.944;2023-07-20T12:01:13;97577.31;;;22.79;49.40
69980;BME280;57318;56.232;43.944;2023-07-20T12:03:39;97571.94;;;24.11;46.48
69980;BME280;57318;56.232;43.944;2023-07-20T12:06:09;97584.16;;;25.06;44.20
69980;BME280;57318;56.232;43.944;2023-07-20T12:08:38;97588.34;;;24.81;43.57
69980;BME280;57318;56.232;43.944;2023-07-20T12:11:04;97583.06;;;24.37;44.80
69980;BME280;57318;56.232;43.944;2023-07-20T12:13:42;97592.25;;;24.04;44.59
69980;BME280;57318;56.232;43.944;2023-07-20T12:16:15;97589.16;;;23.95;45.10
69980;BME280;57318;56.232;43.944;2023-07-20T12:18:43;97583.84;;;24.32;45.58
69980;BME280;57318;56.232;43.944;2023-07-20T12:21:09;97596.50;;;24.86;45.09
69980;BME280;57318;56.232;43.944;2023-07-20T12:23:36;97590.50;;;25.75;42.50
69980;BME280;57318;56.232;43.944;2023-07-20T12:26:06;97586.72;;;25.97;40.47
69980;BME280;57318;56.232;43.944;2023-07-20T12:28:32;97588.94;;;26.00;40.81
69980;BME280;57318;56.232;43.944;2023-07-20T12:30:58;97577.75;;;25.91;40.63
69980;BME280;57318;56.232;43.944;2023-07-20T12:33:24;97596.16;;;25.63;41.81
69980;BME280;57318;56.232;43.944;2023-07-20T12:35:50;97595.06;;;25.16;44.49
69980;BME280;57318;56.232;43.944;2023-07-20T12:38:21;97600.53;;;24.79;46.31
69980;BME280;57318;56.232;43.944;2023-07-20T12:40:47;97609.00;;;24.82;45.80
69980;BME280;57318;56.232;43.944;2023-07-20T12:43:13;97607.38;;;25.77;44.40
69980;BME280;57318;56.232;43.944;2023-07-20T12:45:39;97605.66;;;27.01;42.59
69980;BME280;57318;56.232;43.944;2023-07-20T12:48:05;97609.81;;;28.74;39.16
69980;BME280;57318;56.232;43.944;2023-07-20T12:50:31;97625.13;;;29.82;37.62
69980;BME280;57318;56.232;43.944;2023-07-20T12:52:57;97615.09;;;29.72;36.89
69980;BME280;57318;56.232;43.944;2023-07-20T12:55:22;97608.81;;;29.23;38.60
69980;BME280;57318;56.232;43.944;2023-07-20T12:57:49;97604.63;;;29.02;38.44
69980;BME280;57318;56.232;43.944;2023-07-20T13:00:15;97605.97;;;29.04;37.96
69980;BME280;57318;56.232;43.944;2023-07-20T13:02:42;97617.97;;;28.39;38.50
69980;BME280;57318;56.232;43.944;2023-07-20T13:05:09;97614.00;;;27.56;39.09